createdAt,value
2019-05-10T00:01:30.404Z,5.93
2019-05-10T00:04:15.544Z,6.37
2019-05-10T00:07:03.406Z,5.77
2019-05-10T00:09:30.156Z,6.00
2019-05-10T00:12:07.659Z,7.67
2019-05-10T00:14:45.131Z,7.83
2019-05-10T00:17:14.033Z,6.63
2019-05-10T00:19:42.900Z,7.20
2019-05-10T00:22:09.716Z,7.87
2019-05-10T00:24:36.699Z,6.23
2019-05-10T00:27:03.415Z,6.67
2019-05-10T00:29:30.308Z,6.80
2019-05-10T00:31:57.051Z,8.03
2019-05-10T00:34:23.799Z,6.60
2019-05-10T00:36:50.412Z,6.70
2019-05-10T00:39:19.406Z,7.80
2019-05-10T00:41:45.743Z,7.33
2019-05-10T00:44:12.422Z,7.80
2019-05-10T00:46:39.137Z,7.40
2019-05-10T00:49:05.861Z,6.17
2019-05-10T00:51:32.728Z,6.07
2019-05-10T00:53:59.634Z,8.00
2019-05-10T00:56:26.289Z,6.87
2019-05-10T00:58:53.583Z,7.13
2019-05-10T01:01:20.238Z,7.07
2019-05-10T01:03:46.844Z,8.17
2019-05-10T01:06:13.464Z,7.63
2019-05-10T01:08:40.368Z,5.93
2019-05-10T01:11:07.227Z,6.83
2019-05-10T01:13:33.828Z,7.63
2019-05-10T01:16:00.456Z,7.17
2019-05-10T01:18:27.098Z,8.13
2019-05-10T01:20:53.974Z,8.93
2019-05-10T01:23:20.896Z,7.10
2019-05-10T01:25:47.707Z,9.20
2019-05-10T01:28:14.642Z,8.70
2019-05-10T01:30:42.618Z,9.40
2019-05-10T01:33:09.249Z,8.27
2019-05-10T01:35:35.896Z,7.80
2019-05-10T01:38:02.850Z,9.60
2019-05-10T01:40:29.581Z,9.37
2019-05-10T01:42:56.240Z,8.67
2019-05-10T01:45:23.056Z,8.93
2019-05-10T01:47:50.548Z,10.27
2019-05-10T01:50:17.226Z,9.70
2019-05-10T01:52:43.997Z,11.87
2019-05-10T01:55:10.812Z,9.93
2019-05-10T01:57:37.573Z,10.90
2019-05-10T02:00:07.497Z,11.27
2019-05-10T02:02:34.510Z,9.87
2019-05-10T02:05:01.426Z,12.33
2019-05-10T02:07:28.172Z,12.37
2019-05-10T02:09:54.789Z,12.17
2019-05-10T02:12:21.704Z,11.90
2019-05-10T02:14:48.308Z,13.90
2019-05-10T02:17:14.847Z,12.30
2019-05-10T02:19:42.620Z,13.53
2019-05-10T02:22:09.276Z,14.63
2019-05-10T02:24:36.031Z,15.33
2019-05-10T02:27:03.010Z,15.00
2019-05-10T02:29:29.642Z,16.53
2019-05-10T02:31:56.265Z,17.77
2019-05-10T02:34:22.930Z,16.37
2019-05-10T02:36:49.632Z,17.40
2019-05-10T02:39:16.303Z,16.80
2019-05-10T02:41:42.970Z,17.57
2019-05-10T02:44:10.775Z,16.87
2019-05-10T02:46:37.440Z,15.30
2019-05-10T02:49:04.260Z,16.20
2019-05-10T02:51:31.032Z,18.07
2019-05-10T02:53:59.134Z,17.57
2019-05-10T02:56:30.769Z,16.90
2019-05-10T02:58:57.399Z,16.67
2019-05-10T03:01:27.894Z,16.73
2019-05-10T03:03:59.212Z,16.17
2019-05-10T03:06:28.123Z,16.50
2019-05-10T03:08:55.665Z,17.67
2019-05-10T03:11:25.586Z,17.10
2019-05-10T03:13:52.680Z,17.57
2019-05-10T03:16:21.011Z,16.90
2019-05-10T03:18:50.570Z,18.17
2019-05-10T03:21:17.623Z,18.73
2019-05-10T03:23:46.594Z,18.80
2019-05-10T03:26:13.730Z,19.20
2019-05-10T03:28:40.465Z,19.17
2019-05-10T03:31:10.880Z,18.17
2019-05-10T03:33:37.619Z,19.07
2019-05-10T03:36:04.529Z,16.33
2019-05-10T03:38:31.331Z,13.40
2019-05-10T03:40:58.400Z,12.60
2019-05-10T03:43:25.148Z,13.27
2019-05-10T03:45:55.208Z,13.33
2019-05-10T03:48:21.890Z,14.57
2019-05-10T03:50:48.600Z,14.20
2019-05-10T03:53:15.220Z,12.93
2019-05-10T03:55:41.864Z,13.43
2019-05-10T03:58:08.603Z,12.90
2019-05-10T04:00:35.686Z,14.23
2019-05-10T04:03:02.518Z,13.67
2019-05-10T04:05:29.254Z,14.47
2019-05-10T04:07:55.877Z,14.93
2019-05-10T04:10:22.710Z,15.50
2019-05-10T04:12:50.243Z,17.17
2019-05-10T04:15:19.149Z,18.50
2019-05-10T04:17:50.291Z,19.03
2019-05-10T04:20:17.727Z,20.03
2019-05-10T04:22:44.522Z,21.40
2019-05-10T04:25:11.744Z,20.57
2019-05-10T04:27:38.474Z,20.87
2019-05-10T04:30:05.898Z,18.60
2019-05-10T04:32:32.551Z,18.43
2019-05-10T04:34:59.212Z,19.77
2019-05-10T04:37:25.825Z,24.80
2019-05-10T04:39:52.574Z,14.17
2019-05-10T04:42:19.404Z,20.90
2019-05-10T04:44:53.152Z,15.50
2019-05-10T04:47:18.137Z,23.17
2019-05-10T04:49:44.809Z,13.13
2019-05-10T04:52:11.454Z,13.43
2019-05-10T04:54:38.100Z,13.57
2019-05-10T04:57:04.819Z,13.00
2019-05-10T04:59:31.536Z,14.67
2019-05-10T05:02:01.976Z,15.43
2019-05-10T05:04:29.181Z,19.53
2019-05-10T05:06:56.040Z,16.00
2019-05-10T05:09:22.677Z,20.77
2019-05-10T05:11:49.305Z,21.07
2019-05-10T05:14:15.936Z,21.80
2019-05-10T05:16:43.814Z,20.60
2019-05-10T05:19:10.410Z,20.03
2019-05-10T05:21:37.166Z,22.17
2019-05-10T05:24:05.759Z,20.30
2019-05-10T05:26:32.501Z,21.23
2019-05-10T05:28:59.131Z,20.73
2019-05-10T05:31:25.857Z,21.53
2019-05-10T05:33:52.907Z,22.53
2019-05-10T05:36:19.621Z,20.93
2019-05-10T05:38:47.339Z,20.40
2019-05-10T05:41:15.200Z,21.27
2019-05-10T05:43:46.364Z,18.03
2019-05-10T05:46:14.318Z,20.30
2019-05-10T05:48:41.035Z,19.57
2019-05-10T05:51:08.711Z,19.27
2019-05-10T05:53:41.563Z,20.17
2019-05-10T05:56:12.907Z,19.30
2019-05-10T05:58:42.097Z,21.77
2019-05-10T06:01:05.669Z,19.37
2019-05-10T06:03:32.381Z,20.77
2019-05-10T06:05:59.241Z,19.40
2019-05-10T06:08:25.951Z,20.33
2019-05-10T06:10:57.774Z,21.63
2019-05-10T06:13:30.470Z,19.53
2019-05-10T06:15:54.523Z,22.43
2019-05-10T06:18:21.139Z,22.33
2019-05-10T06:20:47.811Z,22.67
2019-05-10T06:23:14.954Z,24.67
2019-05-10T06:25:42.810Z,24.10
2019-05-10T06:28:25.728Z,26.23
2019-05-10T06:30:41.974Z,27.13
2019-05-10T06:33:12.799Z,27.00
2019-05-10T06:35:38.511Z,28.27
2019-05-10T06:38:06.316Z,27.90
2019-05-10T06:40:39.305Z,28.03
2019-05-10T06:43:07.010Z,28.23
2019-05-10T06:45:30.350Z,25.13
2019-05-10T06:47:57.032Z,26.47
2019-05-10T06:50:30.153Z,25.97
2019-05-10T06:52:52.516Z,26.87
2019-05-10T06:55:19.234Z,25.40
2019-05-10T06:57:50.364Z,27.20
2019-05-10T07:00:14.839Z,24.40
2019-05-10T07:02:41.576Z,25.10
2019-05-10T07:05:08.917Z,24.83
2019-05-10T07:07:44.034Z,26.17
2019-05-10T07:10:15.757Z,23.83
2019-05-10T07:12:35.584Z,25.17
2019-05-10T07:15:05.540Z,24.70
2019-05-10T07:17:41.395Z,26.20
2019-05-10T07:20:01.273Z,25.70
2019-05-10T07:22:29.029Z,24.47
2019-05-10T07:25:03.953Z,23.00
2019-05-10T07:27:25.808Z,23.77
2019-05-10T07:29:52.592Z,23.33
2019-05-10T07:32:22.050Z,20.93
2019-05-10T07:34:48.790Z,22.40
2019-05-10T07:37:16.170Z,21.77
2019-05-10T07:39:43.967Z,23.70
2019-05-10T07:42:10.612Z,22.37
2019-05-10T07:44:41.465Z,21.47
2019-05-10T07:47:07.230Z,22.73
2019-05-10T07:49:34.025Z,22.00
2019-05-10T07:52:03.065Z,21.27
2019-05-10T07:54:29.415Z,20.77
2019-05-10T07:56:56.132Z,22.17
2019-05-10T07:59:27.965Z,22.47
2019-05-10T08:01:51.435Z,21.53
2019-05-10T08:04:19.704Z,22.90
2019-05-10T08:06:48.755Z,21.13
2019-05-10T08:09:15.198Z,21.37
2019-05-10T08:11:41.855Z,19.73
2019-05-10T08:14:11.390Z,20.67
2019-05-10T08:16:38.747Z,21.03
2019-05-10T08:19:05.850Z,19.07
2019-05-10T08:21:32.645Z,21.93
2019-05-10T08:24:05.224Z,19.53
2019-05-10T08:26:28.947Z,17.80
2019-05-10T08:28:59.117Z,20.10
2019-05-10T08:31:33.881Z,14.10
2019-05-10T08:33:58.987Z,19.10
2019-05-10T08:36:28.376Z,16.20
2019-05-10T08:39:03.840Z,17.10
2019-05-10T08:41:23.489Z,17.67
2019-05-10T08:43:52.396Z,18.23
2019-05-10T08:46:28.675Z,16.83
2019-05-10T08:48:51.309Z,16.40
2019-05-10T08:51:17.782Z,16.80
2019-05-10T08:53:47.321Z,15.50
2019-05-10T08:56:20.857Z,16.47
2019-05-10T08:58:45.863Z,13.47
2019-05-10T09:01:26.207Z,12.60
2019-05-10T09:03:41.961Z,12.93
2019-05-10T09:06:11.892Z,11.27
2019-05-10T09:08:37.496Z,10.67
2019-05-10T09:11:06.968Z,10.20
2019-05-10T09:13:41.383Z,10.80
2019-05-10T09:16:06.168Z,10.97
2019-05-10T09:18:38.063Z,13.93
2019-05-10T09:21:09.105Z,12.40
2019-05-10T09:23:34.630Z,8.60
2019-05-10T09:26:10.549Z,8.87
2019-05-10T09:28:32.236Z,10.10
2019-05-10T09:31:15.334Z,8.80
2019-05-10T09:33:27.562Z,7.77
2019-05-10T09:35:55.211Z,7.93
2019-05-10T09:38:22.563Z,7.93
2019-05-10T09:40:54.534Z,6.50
2019-05-10T09:43:21.097Z,6.70
2019-05-10T09:45:49.113Z,6.27
2019-05-10T09:48:15.841Z,6.03
2019-05-10T09:50:47.116Z,6.30
2019-05-10T09:53:13.573Z,5.87
2019-05-10T09:55:39.795Z,5.57
2019-05-10T09:58:08.535Z,6.50
2019-05-10T10:00:38.039Z,6.63
2019-05-10T10:03:03.936Z,5.63
2019-05-10T10:05:30.904Z,6.27
2019-05-10T10:07:57.901Z,7.73
2019-05-10T10:10:31.017Z,7.17
2019-05-10T10:12:58.276Z,6.63
2019-05-10T10:15:32.061Z,6.13
2019-05-10T10:17:49.883Z,5.80
2019-05-10T10:20:17.001Z,5.87
2019-05-10T10:22:49.662Z,5.10
2019-05-10T10:25:12.583Z,5.77
2019-05-10T10:27:40.689Z,5.23
2019-05-10T10:30:12.618Z,9.13
2019-05-10T10:32:37.616Z,6.03
2019-05-10T10:35:07.626Z,7.07
2019-05-10T10:37:34.039Z,6.20
2019-05-10T10:40:05.390Z,5.77
2019-05-10T10:42:29.334Z,6.33
2019-05-10T10:44:56.053Z,5.60
2019-05-10T10:47:27.321Z,4.07
2019-05-10T10:49:51.662Z,3.53
2019-05-10T10:52:20.131Z,3.60
2019-05-10T10:54:47.988Z,2.90
2019-05-10T10:57:14.828Z,3.87
2019-05-10T10:59:41.640Z,4.10
2019-05-10T11:02:31.557Z,3.50
2019-05-10T11:04:40.466Z,3.60
2019-05-10T11:07:10.830Z,4.17
2019-05-10T11:09:36.081Z,3.10
2019-05-10T11:12:03.194Z,2.70
2019-05-10T11:14:32.071Z,2.67
2019-05-10T11:17:02.433Z,3.27
2019-05-10T11:19:36.222Z,3.87
2019-05-10T11:22:09.675Z,3.77
2019-05-10T11:24:31.761Z,5.63
2019-05-10T11:27:00.946Z,3.77
2019-05-10T11:29:33.683Z,4.33
2019-05-10T11:32:15.241Z,4.27
2019-05-10T11:34:37.168Z,4.03
2019-05-10T11:36:57.160Z,3.63
2019-05-10T11:39:26.682Z,4.50
2019-05-10T11:42:02.154Z,3.47
2019-05-10T11:44:23.936Z,3.60
2019-05-10T11:46:50.869Z,3.83
2019-05-10T11:49:20.438Z,4.23
2019-05-10T11:51:47.910Z,3.33
2019-05-10T11:54:15.831Z,3.27
2019-05-10T11:56:43.756Z,4.30
2019-05-10T11:59:12.357Z,3.60
2019-05-10T12:01:41.934Z,4.50
2019-05-10T12:04:13.119Z,4.60
2019-05-10T12:06:49.990Z,4.93
2019-05-10T12:09:18.105Z,4.53
2019-05-10T12:11:51.947Z,3.00
2019-05-10T12:14:24.384Z,3.83
2019-05-10T12:16:54.663Z,3.90
2019-05-10T12:19:21.678Z,4.17
2019-05-10T12:21:56.748Z,3.30
2019-05-10T12:24:38.990Z,4.03
2019-05-10T12:27:18.649Z,3.87
2019-05-10T12:29:22.492Z,4.83
2019-05-10T12:31:53.394Z,9.53
2019-05-10T12:34:17.690Z,4.97
2019-05-10T12:36:44.353Z,4.00
2019-05-10T12:39:11.712Z,3.80
2019-05-10T12:41:39.626Z,3.87
2019-05-10T12:44:07.580Z,3.53
2019-05-10T12:46:34.328Z,3.80
2019-05-10T12:49:02.094Z,3.20
2019-05-10T12:51:31.282Z,3.60
2019-05-10T12:53:57.977Z,9.43
2019-05-10T12:56:24.593Z,14.67
2019-05-10T12:58:57.502Z,17.40
2019-05-10T13:01:25.741Z,18.43
2019-05-10T13:03:48.442Z,18.27
2019-05-10T13:06:19.509Z,17.40
2019-05-10T13:08:44.982Z,17.70
2019-05-10T13:11:11.725Z,15.20
2019-05-10T13:13:38.452Z,19.00
2019-05-10T13:16:10.040Z,16.33
2019-05-10T13:18:49.919Z,16.60
2019-05-10T13:21:02.609Z,17.50
2019-05-10T13:23:29.355Z,16.13
2019-05-10T13:25:56.203Z,17.37
2019-05-10T13:28:24.798Z,16.23
2019-05-10T13:30:51.632Z,21.83
2019-05-10T13:33:28.631Z,16.20
2019-05-10T13:35:50.709Z,16.67
2019-05-10T13:38:15.834Z,12.73
2019-05-10T13:40:45.560Z,12.53
2019-05-10T13:43:11.636Z,13.73
2019-05-10T13:45:40.267Z,12.20
2019-05-10T13:48:06.952Z,14.17
2019-05-10T13:50:36.243Z,11.70
2019-05-10T13:53:13.596Z,12.80
2019-05-10T13:55:36.692Z,11.77
2019-05-10T13:58:03.642Z,12.27
2019-05-10T14:00:36.106Z,11.43
2019-05-10T14:03:08.884Z,11.60
2019-05-10T14:05:34.184Z,12.03
2019-05-10T14:08:00.818Z,12.30
2019-05-10T14:10:27.560Z,11.30
2019-05-10T14:12:56.214Z,8.77
2019-05-10T14:15:22.890Z,10.43
2019-05-10T14:17:49.764Z,10.13
2019-05-10T14:20:25.323Z,13.27
2019-05-10T14:22:48.679Z,10.37
2019-05-10T14:25:14.178Z,10.20
2019-05-10T14:27:40.968Z,9.13
2019-05-10T14:30:13.537Z,8.80
2019-05-10T14:32:37.980Z,9.37
2019-05-10T14:35:06.282Z,12.77
2019-05-10T14:37:33.181Z,11.90
2019-05-10T14:39:59.942Z,8.40
2019-05-10T14:42:31.066Z,9.37
2019-05-10T14:44:55.590Z,9.23
2019-05-10T14:47:46.136Z,9.20
2019-05-10T14:50:04.986Z,10.00
2019-05-10T14:52:35.077Z,8.03
2019-05-10T14:55:03.930Z,2.40
2019-05-10T14:57:30.596Z,2.97
2019-05-10T14:59:57.242Z,2.37
2019-05-10T15:02:25.116Z,2.57
2019-05-10T15:04:51.930Z,2.60
2019-05-10T15:07:18.552Z,2.93
2019-05-10T15:09:45.363Z,2.60
2019-05-10T15:12:16.432Z,2.10
2019-05-10T15:14:40.996Z,2.20
2019-05-10T15:17:07.730Z,2.73
2019-05-10T15:19:35.520Z,3.93
2019-05-10T15:22:02.500Z,7.63
2019-05-10T15:24:29.182Z,10.43
2019-05-10T15:26:58.143Z,12.70
2019-05-10T15:29:28.108Z,13.87
2019-05-10T15:31:55.782Z,12.33
2019-05-10T15:34:22.867Z,13.53
2019-05-10T15:36:49.485Z,12.60
2019-05-10T15:39:17.721Z,13.97
2019-05-10T15:41:46.503Z,15.70
2019-05-10T15:44:13.840Z,13.37
2019-05-10T15:46:42.396Z,14.63
2019-05-10T15:49:13.383Z,14.67
2019-05-10T15:51:48.904Z,15.20
2019-05-10T15:54:13.696Z,16.10
2019-05-10T15:56:41.718Z,15.67
2019-05-10T15:59:12.731Z,14.57
2019-05-10T16:01:39.101Z,16.10
2019-05-10T16:04:06.066Z,14.87
2019-05-10T16:06:43.755Z,15.03
2019-05-10T16:09:17.595Z,15.23
2019-05-10T16:11:40.036Z,15.00
2019-05-10T16:14:06.948Z,15.13
2019-05-10T16:16:37.016Z,15.37
2019-05-10T16:19:04.433Z,15.60
2019-05-10T16:21:31.203Z,16.13
2019-05-10T16:24:00.530Z,14.73
2019-05-10T16:26:27.138Z,16.03
2019-05-10T16:29:02.037Z,16.30
2019-05-10T16:31:24.726Z,15.83
2019-05-10T16:33:53.535Z,16.63
2019-05-10T16:36:23.043Z,16.73
2019-05-10T16:38:50.578Z,16.63
2019-05-10T16:41:17.389Z,16.37
2019-05-10T16:43:44.135Z,16.17
2019-05-10T16:46:10.803Z,14.90
2019-05-10T16:48:38.847Z,16.53
2019-05-10T16:51:10.109Z,17.77
2019-05-10T16:53:43.892Z,17.00
2019-05-10T16:56:13.233Z,17.87
2019-05-10T16:58:39.341Z,17.30
2019-05-10T17:01:06.044Z,15.93
2019-05-10T17:03:32.707Z,18.07
2019-05-10T17:06:04.008Z,18.53
2019-05-10T17:08:30.825Z,16.87
2019-05-10T17:10:56.715Z,16.30
2019-05-10T17:13:23.459Z,17.60
2019-05-10T17:15:50.306Z,17.17
2019-05-10T17:18:19.874Z,16.63
2019-05-10T17:20:50.618Z,17.77
2019-05-10T17:23:14.477Z,18.53
2019-05-10T17:25:42.314Z,16.40
2019-05-10T17:28:09.260Z,17.07
2019-05-10T17:30:36.015Z,16.90
2019-05-10T17:33:03.994Z,17.37
2019-05-10T17:35:36.704Z,18.67
2019-05-10T17:38:01.094Z,16.70
2019-05-10T17:40:29.187Z,17.33
2019-05-10T17:42:57.828Z,17.43
2019-05-10T17:45:26.585Z,18.17
2019-05-10T17:47:53.462Z,18.97
2019-05-10T17:50:20.745Z,21.00
2019-05-10T17:52:47.475Z,18.60
2019-05-10T17:55:18.300Z,17.57
2019-05-10T17:57:48.776Z,17.63
2019-05-10T18:00:15.261Z,18.13
2019-05-10T18:02:42.553Z,17.37
2019-05-10T18:05:16.891Z,16.90
2019-05-10T18:07:51.363Z,18.27
2019-05-10T18:10:22.184Z,16.70
2019-05-10T18:13:03.530Z,18.87
2019-05-10T18:15:32.994Z,18.80
2019-05-10T18:18:02.651Z,18.13
2019-05-10T18:20:41.791Z,17.40
2019-05-10T18:23:05.530Z,18.07
2019-05-10T18:25:34.777Z,18.77
2019-05-10T18:28:10.060Z,17.53
2019-05-10T18:30:43.510Z,17.53
2019-05-10T18:33:14.018Z,16.97
2019-05-10T18:35:52.108Z,15.47
2019-05-10T18:38:17.448Z,16.43
2019-05-10T18:40:44.361Z,16.10
2019-05-10T18:43:11.009Z,17.87
2019-05-10T18:45:38.123Z,16.90
2019-05-10T18:48:05.045Z,16.00
2019-05-10T18:50:31.784Z,14.83
2019-05-10T18:52:58.607Z,13.90
2019-05-10T18:55:25.441Z,13.87
2019-05-10T18:57:52.696Z,15.50
2019-05-10T19:00:22.941Z,13.60
2019-05-10T19:02:49.736Z,14.47
2019-05-10T19:05:17.234Z,13.67
2019-05-10T19:07:43.977Z,13.50
2019-05-10T19:10:13.215Z,13.30
2019-05-10T19:12:40.359Z,13.90
2019-05-10T19:15:15.154Z,12.40
2019-05-10T19:17:40.312Z,13.83
2019-05-10T19:20:09.334Z,12.73
2019-05-10T19:22:41.236Z,11.87
2019-05-10T19:25:11.806Z,12.33
2019-05-10T19:27:33.757Z,12.93
2019-05-10T19:30:05.538Z,13.40
2019-05-10T19:32:32.457Z,12.23
2019-05-10T19:34:59.194Z,12.80
2019-05-10T19:37:31.509Z,14.20
2019-05-10T19:39:54.562Z,14.27
2019-05-10T19:42:23.211Z,13.73
2019-05-10T19:44:49.761Z,14.77
2019-05-10T19:47:17.873Z,15.17
2019-05-10T19:49:45.949Z,14.63
2019-05-10T19:52:13.732Z,13.47
2019-05-10T19:54:41.308Z,12.83
2019-05-10T19:57:15.358Z,14.23
2019-05-10T19:59:37.347Z,13.77
2019-05-10T20:02:04.194Z,14.40
2019-05-10T20:04:31.281Z,14.47
2019-05-10T20:06:59.146Z,15.07
2019-05-10T20:09:26.899Z,14.20
2019-05-10T20:11:53.593Z,14.23
2019-05-10T20:14:20.215Z,13.57
2019-05-10T20:16:52.937Z,15.13
2019-05-10T20:19:16.710Z,14.67
2019-05-10T20:21:43.545Z,14.77
2019-05-10T20:24:10.367Z,15.60
2019-05-10T20:26:37.044Z,15.23
2019-05-10T20:29:03.788Z,15.70
2019-05-10T20:31:30.844Z,16.97
2019-05-10T20:33:58.966Z,16.73
2019-05-10T20:36:25.644Z,16.23
2019-05-10T20:38:53.705Z,17.23
2019-05-10T20:41:20.466Z,16.67
2019-05-10T20:43:47.228Z,16.70
2019-05-10T20:46:13.964Z,18.83
2019-05-10T20:48:40.727Z,18.87
2019-05-10T20:51:07.832Z,19.23
2019-05-10T20:53:35.568Z,20.03
2019-05-10T20:56:02.281Z,20.00
2019-05-10T20:58:29.288Z,19.70
2019-05-10T21:00:56.406Z,19.80
2019-05-10T21:03:26.848Z,18.63
2019-05-10T21:05:53.594Z,19.47
2019-05-10T21:08:20.462Z,20.77
2019-05-10T21:10:47.240Z,19.47
2019-05-10T21:13:13.939Z,20.30
2019-05-10T21:15:40.677Z,19.53
2019-05-10T21:18:07.324Z,19.37
2019-05-10T21:20:34.218Z,19.40
2019-05-10T21:23:00.919Z,20.40
2019-05-10T21:25:27.905Z,20.77
2019-05-10T21:27:54.549Z,21.43
2019-05-10T21:30:21.372Z,21.67
2019-05-10T21:32:48.222Z,22.03
2019-05-10T21:35:15.009Z,23.03
2019-05-10T21:37:41.733Z,22.10
2019-05-10T21:40:08.466Z,20.67
2019-05-10T21:42:35.419Z,23.73
2019-05-10T21:45:02.277Z,23.43
2019-05-10T21:47:29.551Z,22.40
2019-05-10T21:49:56.324Z,23.40
2019-05-10T21:52:23.062Z,21.83
2019-05-10T21:54:49.695Z,22.67
2019-05-10T21:57:16.329Z,24.03
2019-05-10T21:59:43.109Z,23.03
2019-05-10T22:02:10.024Z,23.73
2019-05-10T22:04:36.664Z,22.57
2019-05-10T22:07:03.320Z,22.73
2019-05-10T22:09:29.993Z,22.67
2019-05-10T22:11:59.496Z,22.60
2019-05-10T22:14:25.330Z,22.73
2019-05-10T22:16:51.942Z,22.47
2019-05-10T22:19:19.496Z,21.90
2019-05-10T22:21:46.113Z,22.20
2019-05-10T22:24:12.958Z,22.40
2019-05-10T22:26:39.617Z,20.87
2019-05-10T22:29:06.294Z,22.20
2019-05-10T22:31:33.018Z,21.30
2019-05-10T22:33:59.790Z,22.37
2019-05-10T22:36:26.578Z,23.40
2019-05-10T22:39:06.320Z,21.47
2019-05-10T22:41:22.017Z,21.27
2019-05-10T22:43:48.732Z,21.90
2019-05-10T22:46:15.352Z,22.97
2019-05-10T22:48:41.999Z,22.50
2019-05-10T22:51:08.628Z,23.20
2019-05-10T22:53:35.281Z,23.27
2019-05-10T22:56:02.044Z,23.23
2019-05-10T22:58:28.696Z,25.53
2019-05-10T23:00:55.308Z,22.80
2019-05-10T23:03:24.705Z,22.87
2019-05-10T23:05:50.659Z,24.67
2019-05-10T23:08:17.282Z,23.00
2019-05-10T23:10:44.000Z,24.50
2019-05-10T23:13:10.644Z,23.77
2019-05-10T23:15:38.472Z,25.63
2019-05-10T23:18:05.180Z,27.20
2019-05-10T23:20:31.989Z,24.77
2019-05-10T23:22:59.701Z,25.80
2019-05-10T23:25:26.424Z,24.87
2019-05-10T23:27:53.073Z,25.30
2019-05-10T23:30:19.885Z,23.90
2019-05-10T23:32:46.542Z,25.83
2019-05-10T23:35:13.365Z,25.23
2019-05-10T23:37:39.950Z,24.10
2019-05-10T23:40:07.771Z,26.37
2019-05-10T23:42:34.404Z,25.23
2019-05-10T23:45:01.309Z,25.70
2019-05-10T23:47:29.968Z,25.40
2019-05-10T23:49:56.814Z,27.03
2019-05-10T23:52:24.348Z,26.77
2019-05-10T23:54:55.933Z,23.30
2019-05-10T23:57:23.664Z,25.63
2019-05-10T23:59:50.409Z,26.77
